sensor_id;sensor_type;location;lat;lon;timestamp;pressure;altitude;pressure_sealevel;temperature;humidity
5298;BME280;14738;42.668;23.250;2023-05-17T00:00:14;48493.53;;;-141.90;100.00
5298;BME280;14738;42.668;23.250;2023-05-17T00:02:39;48485.59;;;-141.90;100.00
5298;BME280;14738;42.668;23.250;2023-05-17T00:05:05;48509.41;;;-141.90;100.00
5298;BME280;14738;42.668;23.250;2023-05-17T00:07:31;48499.50;;;-141.90;100.00
5298;BME280;14738;42.668;23.250;2023-05-17T00:09:56;48531.25;;;-141.90;100.00
5298;BME280;14738;42.668;23.250;2023-05-17T00:12:21;48495.53;;;-141.90;100.00
5298;BME280;14738;42.668;23.250;2023-05-17T00:14:47;48507.44;;;-141.90;100.00
5298;BME280;14738;42.668;23.250;2023-05-17T00:17:12;48497.50;;;-141.90;100.00
5298;BME280;14738;42.668;23.250;2023-05-17T00:19:38;48509.41;;;-141.90;100.00
5298;BME280;14738;42.668;23.250;2023-05-17T00:22:03;48507.44;;;-141.90;100.00
5298;BME280;14738;42.668;23.250;2023-05-17T00:24:28;48469.72;;;-141.90;100.00
5298;BME280;14738;42.668;23.250;2023-05-17T00:26:54;48525.31;;;-141.90;100.00
5298;BME280;14738;42.668;23.250;2023-05-17T00:29:19;48491.56;;;-141.90;100.00
5298;BME280;14738;42.668;23.250;2023-05-17T00:31:45;48495.53;;;-141.90;100.00
5298;BME280;14738;42.668;23.250;2023-05-17T00:34:10;48501.47;;;-141.90;100.00
5298;BME280;14738;42.668;23.250;2023-05-17T00:36:35;48511.41;;;-141.90;100.00
5298;BME280;14738;42.668;23.250;2023-05-17T00:39:01;48493.53;;;-141.90;100.00
5298;BME280;14738;42.668;23.250;2023-05-17T00:41:26;48477.66;;;-141.90;100.00
5298;BME280;14738;42.668;23.250;2023-05-17T00:43:52;48507.44;;;-141.90;100.00
5298;BME280;14738;42.668;23.250;2023-05-17T00:46:17;48481.63;;;-141.90;100.00
5298;BME280;14738;42.668;23.250;2023-05-17T00:48:43;48507.44;;;-141.90;100.00
5298;BME280;14738;42.668;23.250;2023-05-17T00:51:09;48477.66;;;-141.90;100.00
5298;BME280;14738;42.668;23.250;2023-05-17T00:53:34;48517.34;;;-141.90;100.00
5298;BME280;14738;42.668;23.250;2023-05-17T00:56:02;48497.50;;;-141.90;100.00
5298;BME280;14738;42.668;23.250;2023-05-17T00:58:28;48509.41;;;-141.90;100.00
5298;BME280;14738;42.668;23.250;2023-05-17T01:00:54;48473.69;;;-141.90;100.00
5298;BME280;14738;42.668;23.250;2023-05-17T01:03:20;48547.13;;;-141.90;100.00
5298;BME280;14738;42.668;23.250;2023-05-17T01:05:49;48505.44;;;-141.90;100.00
5298;BME280;14738;42.668;23.250;2023-05-17T01:08:14;48511.41;;;-141.90;100.00
5298;BME280;14738;42.668;23.250;2023-05-17T01:10:56;48491.56;;;-141.90;100.00
5298;BME280;14738;42.668;23.250;2023-05-17T01:13:33;48469.72;;;-141.90;100.00
5298;BME280;14738;42.668;23.250;2023-05-17T01:16:11;48483.59;;;-141.90;100.00
5298;BME280;14738;42.668;23.250;2023-05-17T01:18:43;48497.50;;;-141.90;100.00
5298;BME280;14738;42.668;23.250;2023-05-17T01:21:35;48529.28;;;-141.90;100.00
5298;BME280;14738;42.668;23.250;2023-05-17T01:26:43;48509.41;;;-141.90;100.00
5298;BME280;14738;42.668;23.250;2023-05-17T01:29:13;48463.75;;;-141.90;100.00
5298;BME280;14738;42.668;23.250;2023-05-17T01:31:40;48485.59;;;-141.90;100.00
5298;BME280;14738;42.668;23.250;2023-05-17T01:34:09;48497.50;;;-141.90;100.00
5298;BME280;14738;42.668;23.250;2023-05-17T01:36:34;48491.56;;;-141.90;100.00
5298;BME280;14738;42.668;23.250;2023-05-17T01:39:03;48461.78;;;-141.90;100.00
5298;BME280;14738;42.668;23.250;2023-05-17T01:41:33;48475.66;;;-141.90;100.00
5298;BME280;14738;42.668;23.250;2023-05-17T01:46:39;48465.75;;;-141.90;100.00
5298;BME280;14738;42.668;23.250;2023-05-17T01:49:13;48515.38;;;-141.90;100.00
5298;BME280;14738;42.668;23.250;2023-05-17T01:51:48;48489.56;;;-141.90;100.00
5298;BME280;14738;42.668;23.250;2023-05-17T01:54:19;48483.59;;;-141.90;100.00
5298;BME280;14738;42.668;23.250;2023-05-17T01:56:49;48495.53;;;-141.90;100.00
5298;BME280;14738;42.668;23.250;2023-05-17T01:59:19;48509.41;;;-141.90;100.00
5298;BME280;14738;42.668;23.250;2023-05-17T02:01:47;48517.34;;;-141.90;100.00
5298;BME280;14738;42.668;23.250;2023-05-17T02:04:13;48513.38;;;-141.90;100.00
5298;BME280;14738;42.668;23.250;2023-05-17T02:06:39;48483.59;;;-141.90;100.00
5298;BME280;14738;42.668;23.250;2023-05-17T02:09:04;48485.59;;;-141.90;100.00
5298;BME280;14738;42.668;23.250;2023-05-17T02:11:29;48513.38;;;-141.90;100.00
5298;BME280;14738;42.668;23.250;2023-05-17T02:13:56;48501.47;;;-141.90;100.00
5298;BME280;14738;42.668;23.250;2023-05-17T02:16:22;48511.41;;;-141.90;100.00
5298;BME280;14738;42.668;23.250;2023-05-17T02:18:48;48517.34;;;-141.90;100.00
5298;BME280;14738;42.668;23.250;2023-05-17T02:21:13;48541.19;;;-141.90;100.00
5298;BME280;14738;42.668;23.250;2023-05-17T02:23:38;48501.47;;;-141.90;100.00
5298;BME280;14738;42.668;23.250;2023-05-17T02:26:04;48499.50;;;-141.90;100.00
5298;BME280;14738;42.668;23.250;2023-05-17T02:28:29;48517.34;;;-141.90;100.00
5298;BME280;14738;42.668;23.250;2023-05-17T02:30:55;48489.56;;;-141.90;100.00
5298;BME280;14738;42.668;23.250;2023-05-17T02:33:21;48485.59;;;-141.90;100.00
5298;BME280;14738;42.668;23.250;2023-05-17T02:35:48;48501.47;;;-141.90;100.00
5298;BME280;14738;42.668;23.250;2023-05-17T02:38:14;48487.56;;;-141.90;100.00
5298;BME280;14738;42.668;23.250;2023-05-17T02:40:40;48493.53;;;-141.90;100.00
5298;BME280;14738;42.668;23.250;2023-05-17T02:43:06;48509.41;;;-141.90;100.00
5298;BME280;14738;42.668;23.250;2023-05-17T02:45:31;48477.66;;;-141.90;100.00
5298;BME280;14738;42.668;23.250;2023-05-17T02:47:56;48511.41;;;-141.90;100.00
5298;BME280;14738;42.668;23.250;2023-05-17T02:50:22;48513.38;;;-141.90;100.00
5298;BME280;14738;42.668;23.250;2023-05-17T02:52:47;48483.59;;;-141.90;100.00
5298;BME280;14738;42.668;23.250;2023-05-17T02:55:13;48513.38;;;-141.90;100.00
5298;BME280;14738;42.668;23.250;2023-05-17T02:57:38;48509.41;;;-141.90;100.00
5298;BME280;14738;42.668;23.250;2023-05-17T03:00:04;48503.47;;;-141.90;100.00
5298;BME280;14738;42.668;23.250;2023-05-17T03:02:30;48497.50;;;-141.90;100.00
5298;BME280;14738;42.668;23.250;2023-05-17T03:04:56;48517.34;;;-141.90;100.00
5298;BME280;14738;42.668;23.250;2023-05-17T03:07:21;48497.50;;;-141.90;100.00
5298;BME280;14738;42.668;23.250;2023-05-17T03:09:46;48495.53;;;-141.90;100.00
5298;BME280;14738;42.668;23.250;2023-05-17T03:12:12;48517.34;;;-141.90;100.00
5298;BME280;14738;42.668;23.250;2023-05-17T03:14:37;48471.69;;;-141.90;100.00
5298;BME280;14738;42.668;23.250;2023-05-17T03:17:02;48485.59;;;-141.90;100.00
5298;BME280;14738;42.668;23.250;2023-05-17T03:19:28;48469.72;;;-141.90;100.00
5298;BME280;14738;42.668;23.250;2023-05-17T03:21:53;48507.44;;;-141.90;100.00
5298;BME280;14738;42.668;23.250;2023-05-17T03:24:19;48497.50;;;-141.90;100.00
5298;BME280;14738;42.668;23.250;2023-05-17T03:26:44;48495.53;;;-141.90;100.00
5298;BME280;14738;42.668;23.250;2023-05-17T03:29:10;48525.31;;;-141.90;100.00
5298;BME280;14738;42.668;23.250;2023-05-17T03:31:36;48485.59;;;-141.90;100.00
5298;BME280;14738;42.668;23.250;2023-05-17T03:34:01;48477.66;;;-141.90;100.00
5298;BME280;14738;42.668;23.250;2023-05-17T03:36:26;48505.44;;;-141.90;100.00
5298;BME280;14738;42.668;23.250;2023-05-17T03:38:54;48469.72;;;-141.90;100.00
5298;BME280;14738;42.668;23.250;2023-05-17T03:41:20;48481.63;;;-141.90;100.00
5298;BME280;14738;42.668;23.250;2023-05-17T03:43:45;48517.34;;;-141.90;100.00
5298;BME280;14738;42.668;23.250;2023-05-17T03:46:11;48533.25;;;-141.90;100.00
5298;BME280;14738;42.668;23.250;2023-05-17T03:48:36;48497.50;;;-141.90;100.00
5298;BME280;14738;42.668;23.250;2023-05-17T03:51:01;48497.50;;;-141.90;100.00
5298;BME280;14738;42.668;23.250;2023-05-17T03:53:27;48517.34;;;-141.90;100.00
5298;BME280;14738;42.668;23.250;2023-05-17T03:55:52;48517.34;;;-141.90;100.00
5298;BME280;14738;42.668;23.250;2023-05-17T03:58:18;48525.31;;;-141.90;100.00
5298;BME280;14738;42.668;23.250;2023-05-17T04:00:43;48497.50;;;-141.90;100.00
5298;BME280;14738;42.668;23.250;2023-05-17T04:03:08;48507.44;;;-141.90;100.00
5298;BME280;14738;42.668;23.250;2023-05-17T04:05:34;48529.28;;;-141.90;100.00
5298;BME280;14738;42.668;23.250;2023-05-17T04:07:59;48479.63;;;-141.90;100.00
5298;BME280;14738;42.668;23.250;2023-05-17T04:10:25;48525.31;;;-141.90;100.00
5298;BME280;14738;42.668;23.250;2023-05-17T04:12:50;48495.53;;;-141.90;100.00
5298;BME280;14738;42.668;23.250;2023-05-17T04:15:16;48513.38;;;-141.90;100.00
5298;BME280;14738;42.668;23.250;2023-05-17T04:17:41;48551.09;;;-141.90;100.00
5298;BME280;14738;42.668;23.250;2023-05-17T04:20:07;48545.16;;;-141.90;100.00
5298;BME280;14738;42.668;23.250;2023-05-17T04:22:32;48557.06;;;-141.90;100.00
5298;BME280;14738;42.668;23.250;2023-05-17T04:24:58;48568.97;;;-141.90;100.00
5298;BME280;14738;42.668;23.250;2023-05-17T04:27:23;48513.38;;;-141.90;100.00
5298;BME280;14738;42.668;23.250;2023-05-17T04:29:48;48521.34;;;-141.90;100.00
5298;BME280;14738;42.668;23.250;2023-05-17T04:32:14;48553.09;;;-141.90;100.00
5298;BME280;14738;42.668;23.250;2023-05-17T04:34:40;48515.38;;;-141.90;100.00
5298;BME280;14738;42.668;23.250;2023-05-17T04:37:07;48551.09;;;-141.90;100.00
5298;BME280;14738;42.668;23.250;2023-05-17T04:39:32;48543.16;;;-141.90;100.00
5298;BME280;14738;42.668;23.250;2023-05-17T04:41:58;48582.88;;;-141.90;100.00
5298;BME280;14738;42.668;23.250;2023-05-17T04:44:23;48604.72;;;-141.90;100.00
5298;BME280;14738;42.668;23.250;2023-05-17T04:46:48;48568.97;;;-141.90;100.00
5298;BME280;14738;42.668;23.250;2023-05-17T04:49:14;48596.78;;;-141.90;45.04
5298;BME280;14738;42.668;23.250;2023-05-17T04:51:40;48600.75;;;-141.90;46.06
5298;BME280;14738;42.668;23.250;2023-05-17T04:54:05;48628.53;;;-141.90;44.52
5298;BME280;14738;42.668;23.250;2023-05-17T04:56:34;48612.66;;;-141.90;44.78
5298;BME280;14738;42.668;23.250;2023-05-17T04:58:59;48624.56;;;-141.90;43.39
5298;BME280;14738;42.668;23.250;2023-05-17T05:01:25;48600.75;;;-141.90;43.79
5298;BME280;14738;42.668;23.250;2023-05-17T05:03:51;48634.50;;;-141.90;42.65
5298;BME280;14738;42.668;23.250;2023-05-17T05:06:16;48602.72;;;-141.90;44.22
5298;BME280;14738;42.668;23.250;2023-05-17T05:08:41;48632.50;;;-141.90;42.11
5298;BME280;14738;42.668;23.250;2023-05-17T05:11:07;48636.47;;;-141.90;41.09
5298;BME280;14738;42.668;23.250;2023-05-17T05:13:32;48652.38;;;-141.90;41.77
5298;BME280;14738;42.668;23.250;2023-05-17T05:15:57;48660.31;;;-141.90;38.25
5298;BME280;14738;42.668;23.250;2023-05-17T05:18:23;48684.13;;;-141.90;37.38
5298;BME280;14738;42.668;23.250;2023-05-17T05:20:48;48763.53;;;-141.90;35.93
5298;BME280;14738;42.668;23.250;2023-05-17T05:23:14;48719.88;;;-141.90;35.39
5298;BME280;14738;42.668;23.250;2023-05-17T05:25:39;48757.59;;;-141.90;35.36
5298;BME280;14738;42.668;23.250;2023-05-17T05:28:05;48795.31;;;-141.90;35.21
5298;BME280;14738;42.668;23.250;2023-05-17T05:30:31;48745.69;;;-141.90;34.63
5298;BME280;14738;42.668;23.250;2023-05-17T05:32:56;48745.69;;;-141.90;34.00
5298;BME280;14738;42.668;23.250;2023-05-17T05:35:22;48751.63;;;-141.90;35.18
5298;BME280;14738;42.668;23.250;2023-05-17T05:38:13;48753.63;;;-141.90;33.36
5298;BME280;14738;42.668;23.250;2023-05-17T05:40:45;48735.75;;;-141.90;34.01
5298;BME280;14738;42.668;23.250;2023-05-17T05:43:12;48678.16;;;-141.90;35.35
5298;BME280;14738;42.668;23.250;2023-05-17T05:45:38;48676.19;;;-141.90;35.85
5298;BME280;14738;42.668;23.250;2023-05-17T05:48:23;48696.03;;;-141.90;35.58
5298;BME280;14738;42.668;23.250;2023-05-17T05:50:48;48727.81;;;-141.90;33.94
5298;BME280;14738;42.668;23.250;2023-05-17T05:53:13;48705.97;;;-141.90;34.05
5298;BME280;14738;42.668;23.250;2023-05-17T05:55:40;48700.00;;;-141.90;35.37
5298;BME280;14738;42.668;23.250;2023-05-17T05:58:05;48668.25;;;-141.90;36.33
5298;BME280;14738;42.668;23.250;2023-05-17T06:00:31;48707.94;;;-141.90;33.93
5298;BME280;14738;42.668;23.250;2023-05-17T06:02:56;48680.16;;;-141.90;35.36
5298;BME280;14738;42.668;23.250;2023-05-17T06:05:21;48694.06;;;-141.90;34.90
5298;BME280;14738;42.668;23.250;2023-05-17T06:07:47;48739.72;;;-141.90;33.60
5298;BME280;14738;42.668;23.250;2023-05-17T06:10:12;48694.06;;;-141.90;35.44
5298;BME280;14738;42.668;23.250;2023-05-17T06:12:38;48650.38;;;-141.90;37.80
5298;BME280;14738;42.668;23.250;2023-05-17T06:15:03;48596.78;;;-141.90;37.53
5298;BME280;14738;42.668;23.250;2023-05-17T06:17:29;48668.25;;;-141.90;36.60
5298;BME280;14738;42.668;23.250;2023-05-17T06:19:54;48703.97;;;-141.90;33.87
5298;BME280;14738;42.668;23.250;2023-05-17T06:22:20;48640.44;;;-141.90;35.91
5298;BME280;14738;42.668;23.250;2023-05-17T06:24:45;48660.31;;;-141.90;36.36
5298;BME280;14738;42.668;23.250;2023-05-17T06:27:11;48666.25;;;-141.90;35.86
5298;BME280;14738;42.668;23.250;2023-05-17T06:29:36;48640.44;;;-141.90;36.94
5298;BME280;14738;42.668;23.250;2023-05-17T06:32:03;48610.66;;;-141.90;38.15
5298;BME280;14738;42.668;23.250;2023-05-17T06:34:28;48616.63;;;-141.90;38.89
5298;BME280;14738;42.668;23.250;2023-05-17T06:36:54;48648.38;;;-141.90;36.28
5298;BME280;14738;42.668;23.250;2023-05-17T06:39:19;48703.97;;;-141.90;36.01
5298;BME280;14738;42.668;23.250;2023-05-17T06:41:44;48664.28;;;-141.90;35.73
5298;BME280;14738;42.668;23.250;2023-05-17T06:44:10;48688.09;;;-141.90;34.43
5298;BME280;14738;42.668;23.250;2023-05-17T06:46:35;48684.13;;;-141.90;33.86
5298;BME280;14738;42.668;23.250;2023-05-17T06:49:02;48660.31;;;-141.90;35.00
5298;BME280;14738;42.668;23.250;2023-05-17T06:51:28;48668.25;;;-141.90;35.29
5298;BME280;14738;42.668;23.250;2023-05-17T06:53:53;48620.59;;;-141.90;35.89
5298;BME280;14738;42.668;23.250;2023-05-17T06:56:19;48684.13;;;-141.90;36.49
5298;BME280;14738;42.668;23.250;2023-05-17T06:58:44;48666.25;;;-141.90;36.75
5298;BME280;14738;42.668;23.250;2023-05-17T07:01:09;48632.50;;;-141.90;37.01
5298;BME280;14738;42.668;23.250;2023-05-17T07:03:35;48719.88;;;-141.90;34.23
5298;BME280;14738;42.668;23.250;2023-05-17T07:06:00;48711.91;;;-141.90;34.24
5298;BME280;14738;42.668;23.250;2023-05-17T07:08:26;48676.19;;;-141.90;34.76
5298;BME280;14738;42.668;23.250;2023-05-17T07:10:52;48672.22;;;-141.90;35.90
5298;BME280;14738;42.668;23.250;2023-05-17T07:13:17;48668.25;;;-141.90;35.25
5298;BME280;14738;42.668;23.250;2023-05-17T07:15:43;48652.38;;;-141.90;36.93
5298;BME280;14738;42.668;23.250;2023-05-17T07:18:09;48650.38;;;-141.90;38.27
5298;BME280;14738;42.668;23.250;2023-05-17T07:20:34;48628.53;;;-141.90;38.70
5298;BME280;14738;42.668;23.250;2023-05-17T07:23:00;48612.66;;;-141.90;39.27
5298;BME280;14738;42.668;23.250;2023-05-17T07:25:25;48600.75;;;-141.90;39.24
5298;BME280;14738;42.668;23.250;2023-05-17T07:27:51;48608.69;;;-141.90;39.64
5298;BME280;14738;42.668;23.250;2023-05-17T07:30:16;48572.94;;;-141.90;40.31
5298;BME280;14738;42.668;23.250;2023-05-17T07:32:41;48563.03;;;-141.90;41.45
5298;BME280;14738;42.668;23.250;2023-05-17T07:35:07;48604.72;;;-141.90;42.48
5298;BME280;14738;42.668;23.250;2023-05-17T07:37:32;48557.06;;;-141.90;42.01
5298;BME280;14738;42.668;23.250;2023-05-17T07:39:58;48561.03;;;-141.90;42.34
5298;BME280;14738;42.668;23.250;2023-05-17T07:42:23;48580.88;;;-141.90;42.04
5298;BME280;14738;42.668;23.250;2023-05-17T07:44:48;48616.63;;;-141.90;41.56
5298;BME280;14738;42.668;23.250;2023-05-17T07:47:14;48596.78;;;-141.90;41.17
5298;BME280;14738;42.668;23.250;2023-05-17T07:49:40;48568.97;;;-141.90;41.09
5298;BME280;14738;42.668;23.250;2023-05-17T07:52:06;48565.00;;;-141.90;42.87
5298;BME280;14738;42.668;23.250;2023-05-17T07:54:31;48561.03;;;-141.90;42.70
5298;BME280;14738;42.668;23.250;2023-05-17T07:56:56;48563.03;;;-141.90;43.35
5298;BME280;14738;42.668;23.250;2023-05-17T07:59:24;48588.84;;;-141.90;42.44
5298;BME280;14738;42.668;23.250;2023-05-17T08:01:50;48561.03;;;-141.90;43.86
5298;BME280;14738;42.668;23.250;2023-05-17T08:04:16;48557.06;;;-141.90;43.73
5298;BME280;14738;42.668;23.250;2023-05-17T08:06:43;48565.00;;;-141.90;43.77
5298;BME280;14738;42.668;23.250;2023-05-17T08:09:11;48572.94;;;-141.90;42.51
5298;BME280;14738;42.668;23.250;2023-05-17T08:11:37;48563.03;;;-141.90;43.15
5298;BME280;14738;42.668;23.250;2023-05-17T08:14:05;48602.72;;;-141.90;43.00
5298;BME280;14738;42.668;23.250;2023-05-17T08:16:31;48576.91;;;-141.90;42.36
5298;BME280;14738;42.668;23.250;2023-05-17T08:18:56;48529.28;;;-141.90;43.03
5298;BME280;14738;42.668;23.250;2023-05-17T08:21:21;48572.94;;;-141.90;43.57
5298;BME280;14738;42.668;23.250;2023-05-17T08:23:47;48543.16;;;-141.90;43.18
5298;BME280;14738;42.668;23.250;2023-05-17T08:26:12;48565.00;;;-141.90;43.20
5298;BME280;14738;42.668;23.250;2023-05-17T08:28:38;48545.16;;;-141.90;43.94
5298;BME280;14738;42.668;23.250;2023-05-17T08:31:03;48568.97;;;-141.90;42.90
5298;BME280;14738;42.668;23.250;2023-05-17T08:33:29;48551.09;;;-141.90;42.83
5298;BME280;14738;42.668;23.250;2023-05-17T08:35:54;48555.09;;;-141.90;43.11
5298;BME280;14738;42.668;23.250;2023-05-17T08:38:21;48557.06;;;-141.90;43.70
5298;BME280;14738;42.668;23.250;2023-05-17T08:40:54;48565.00;;;-141.90;43.13
5298;BME280;14738;42.668;23.250;2023-05-17T08:43:21;48568.97;;;-141.90;41.76
5298;BME280;14738;42.668;23.250;2023-05-17T08:45:48;48578.91;;;-141.90;40.86
5298;BME280;14738;42.668;23.250;2023-05-17T08:48:14;48594.78;;;-141.90;41.42
5298;BME280;14738;42.668;23.250;2023-05-17T08:50:45;48596.78;;;-141.90;41.36
5298;BME280;14738;42.668;23.250;2023-05-17T08:53:11;48574.94;;;-141.90;40.84
5298;BME280;14738;42.668;23.250;2023-05-17T08:55:38;48574.94;;;-141.90;41.93
5298;BME280;14738;42.668;23.250;2023-05-17T08:58:05;48604.72;;;-141.90;39.68
5298;BME280;14738;42.668;23.250;2023-05-17T09:00:31;48610.66;;;-141.90;41.07
5298;BME280;14738;42.668;23.250;2023-05-17T09:02:58;48582.88;;;-141.90;40.98
5298;BME280;14738;42.668;23.250;2023-05-17T09:05:25;48622.59;;;-141.90;40.00
5298;BME280;14738;42.668;23.250;2023-05-17T09:07:51;48578.91;;;-141.90;41.21
5298;BME280;14738;42.668;23.250;2023-05-17T09:10:18;48632.50;;;-141.90;40.59
5298;BME280;14738;42.668;23.250;2023-05-17T09:12:43;48576.91;;;-141.90;41.01
5298;BME280;14738;42.668;23.250;2023-05-17T09:15:17;48608.69;;;-141.90;40.54
5298;BME280;14738;42.668;23.250;2023-05-17T09:17:50;48590.81;;;-141.90;40.84
5298;BME280;14738;42.668;23.250;2023-05-17T09:20:27;48586.84;;;-141.90;40.37
5298;BME280;14738;42.668;23.250;2023-05-17T09:23:01;48576.91;;;-141.90;40.68
5298;BME280;14738;42.668;23.250;2023-05-17T09:25:29;48592.81;;;-141.90;40.72
5298;BME280;14738;42.668;23.250;2023-05-17T09:27:59;48572.94;;;-141.90;40.61
5298;BME280;14738;42.668;23.250;2023-05-17T09:30:26;48592.81;;;-141.90;40.96
5298;BME280;14738;42.668;23.250;2023-05-17T09:32:51;48606.69;;;-141.90;41.36
5298;BME280;14738;42.668;23.250;2023-05-17T09:35:17;48594.78;;;-141.90;41.61
5298;BME280;14738;42.668;23.250;2023-05-17T09:37:43;48596.78;;;-141.90;41.49
5298;BME280;14738;42.668;23.250;2023-05-17T09:40:22;48588.84;;;-141.90;41.64
5298;BME280;14738;42.668;23.250;2023-05-17T09:42:48;48594.78;;;-141.90;41.05
5298;BME280;14738;42.668;23.250;2023-05-17T09:45:20;48620.59;;;-141.90;39.93
5298;BME280;14738;42.668;23.250;2023-05-17T09:47:46;48624.56;;;-141.90;39.72
5298;BME280;14738;42.668;23.250;2023-05-17T09:50:17;48576.91;;;-141.90;41.05
5298;BME280;14738;42.668;23.250;2023-05-17T09:52:43;48557.06;;;-141.90;41.56
5298;BME280;14738;42.668;23.250;2023-05-17T09:55:09;48567.00;;;-141.90;41.74
5298;BME280;14738;42.668;23.250;2023-05-17T09:57:38;48580.88;;;-141.90;42.09
5298;BME280;14738;42.668;23.250;2023-05-17T10:00:05;48561.03;;;-141.90;43.50
5298;BME280;14738;42.668;23.250;2023-05-17T10:02:36;48561.03;;;-141.90;43.83
5298;BME280;14738;42.668;23.250;2023-05-17T10:05:09;48568.97;;;-141.90;44.37
5298;BME280;14738;42.668;23.250;2023-05-17T10:07:36;48604.72;;;-141.90;44.06
5298;BME280;14738;42.668;23.250;2023-05-17T10:10:02;48513.38;;;-141.90;43.55
5298;BME280;14738;42.668;23.250;2023-05-17T10:12:28;48545.16;;;-141.90;43.45
5298;BME280;14738;42.668;23.250;2023-05-17T10:14:55;48555.09;;;-141.90;43.10
5298;BME280;14738;42.668;23.250;2023-05-17T10:17:21;48537.22;;;-141.90;44.03
5298;BME280;14738;42.668;23.250;2023-05-17T10:19:48;48559.06;;;-141.90;44.00
5298;BME280;14738;42.668;23.250;2023-05-17T10:22:14;48537.22;;;-141.90;43.42
5298;BME280;14738;42.668;23.250;2023-05-17T10:24:43;48553.09;;;-141.90;44.58
5298;BME280;14738;42.668;23.250;2023-05-17T10:27:11;48505.44;;;-141.90;44.67
5298;BME280;14738;42.668;23.250;2023-05-17T10:29:38;48549.13;;;-141.90;45.01
5298;BME280;14738;42.668;23.250;2023-05-17T10:32:04;48521.34;;;-141.90;45.34
5298;BME280;14738;42.668;23.250;2023-05-17T10:34:37;48513.38;;;-141.90;46.19
5298;BME280;14738;42.668;23.250;2023-05-17T10:37:03;48533.25;;;-141.90;45.53
5298;BME280;14738;42.668;23.250;2023-05-17T10:39:33;48531.25;;;-141.90;45.92
5298;BME280;14738;42.668;23.250;2023-05-17T10:42:05;48521.34;;;-141.90;45.71
5298;BME280;14738;42.668;23.250;2023-05-17T10:44:32;48541.19;;;-141.90;46.25
5298;BME280;14738;42.668;23.250;2023-05-17T10:46:58;48485.59;;;-141.90;46.52
5298;BME280;14738;42.668;23.250;2023-05-17T10:49:36;48521.34;;;-141.90;45.93
5298;BME280;14738;42.668;23.250;2023-05-17T10:54:41;48525.31;;;-141.90;45.21
5298;BME280;14738;42.668;23.250;2023-05-17T10:57:07;48523.31;;;-141.90;44.85
5298;BME280;14738;42.668;23.250;2023-05-17T10:59:34;48525.31;;;-141.90;44.74
5298;BME280;14738;42.668;23.250;2023-05-17T11:02:07;48519.34;;;-141.90;44.70
5298;BME280;14738;42.668;23.250;2023-05-17T11:04:42;48521.34;;;-141.90;45.16
5298;BME280;14738;42.668;23.250;2023-05-17T11:09:51;48513.38;;;-141.90;45.26
5298;BME280;14738;42.668;23.250;2023-05-17T11:14:54;48535.22;;;-141.90;45.56
5298;BME280;14738;42.668;23.250;2023-05-17T11:17:24;48557.06;;;-141.90;44.57
5298;BME280;14738;42.668;23.250;2023-05-17T11:22:25;48537.22;;;-141.90;43.97
5298;BME280;14738;42.668;23.250;2023-05-17T11:24:53;48551.09;;;-141.90;44.95
5298;BME280;14738;42.668;23.250;2023-05-17T11:27:20;48509.41;;;-141.90;45.55
5298;BME280;14738;42.668;23.250;2023-05-17T11:29:54;48537.22;;;-141.90;46.11
5298;BME280;14738;42.668;23.250;2023-05-17T11:32:30;48533.25;;;-141.90;46.06
5298;BME280;14738;42.668;23.250;2023-05-17T11:34:59;48535.22;;;-141.90;45.78
5298;BME280;14738;42.668;23.250;2023-05-17T11:37:28;48533.25;;;-141.90;46.06
5298;BME280;14738;42.668;23.250;2023-05-17T11:40:04;48543.16;;;-141.90;47.56
5298;BME280;14738;42.668;23.250;2023-05-17T11:42:31;48509.41;;;-141.90;49.10
5298;BME280;14738;42.668;23.250;2023-05-17T11:44:57;48523.31;;;-141.90;49.90
5298;BME280;14738;42.668;23.250;2023-05-17T11:47:25;48513.38;;;-141.90;49.15
5298;BME280;14738;42.668;23.250;2023-05-17T11:49:53;48499.50;;;-141.90;49.96
5298;BME280;14738;42.668;23.250;2023-05-17T11:52:19;48529.28;;;-141.90;49.01
5298;BME280;14738;42.668;23.250;2023-05-17T11:54:45;48507.44;;;-141.90;48.69
5298;BME280;14738;42.668;23.250;2023-05-17T11:57:12;48513.38;;;-141.90;49.38
5298;BME280;14738;42.668;23.250;2023-05-17T11:59:41;48503.47;;;-141.90;49.67
5298;BME280;14738;42.668;23.250;2023-05-17T12:02:07;48533.25;;;-141.90;49.00
5298;BME280;14738;42.668;23.250;2023-05-17T12:04:37;48509.41;;;-141.90;48.76
5298;BME280;14738;42.668;23.250;2023-05-17T12:07:03;48481.63;;;-141.90;48.43
5298;BME280;14738;42.668;23.250;2023-05-17T12:09:29;48517.34;;;-141.90;48.15
5298;BME280;14738;42.668;23.250;2023-05-17T12:11:55;48503.47;;;-141.90;49.07
5298;BME280;14738;42.668;23.250;2023-05-17T12:14:21;48469.72;;;-141.90;49.61
5298;BME280;14738;42.668;23.250;2023-05-17T12:16:50;48485.59;;;-141.90;49.59
5298;BME280;14738;42.668;23.250;2023-05-17T12:19:21;48497.50;;;-141.90;49.61
5298;BME280;14738;42.668;23.250;2023-05-17T12:21:48;48509.41;;;-141.90;48.30
5298;BME280;14738;42.668;23.250;2023-05-17T12:24:13;48527.28;;;-141.90;48.54
5298;BME280;14738;42.668;23.250;2023-05-17T12:26:46;48487.56;;;-141.90;47.50
5298;BME280;14738;42.668;23.250;2023-05-17T12:29:12;48499.50;;;-141.90;47.28
5298;BME280;14738;42.668;23.250;2023-05-17T12:31:46;48523.31;;;-141.90;46.65
5298;BME280;14738;42.668;23.250;2023-05-17T12:34:12;48519.34;;;-141.90;46.82
5298;BME280;14738;42.668;23.250;2023-05-17T12:36:38;48555.09;;;-141.90;46.73
5298;BME280;14738;42.668;23.250;2023-05-17T12:39:04;48517.34;;;-141.90;45.76
5298;BME280;14738;42.668;23.250;2023-05-17T12:41:34;48499.50;;;-141.90;46.45
5298;BME280;14738;42.668;23.250;2023-05-17T12:44:00;48533.25;;;-141.90;46.21
5298;BME280;14738;42.668;23.250;2023-05-17T12:46:27;48543.16;;;-141.90;45.18
5298;BME280;14738;42.668;23.250;2023-05-17T12:48:53;48517.34;;;-141.90;45.13